createdAt,value
2022-11-04T00:00:18.881Z,100077.34
2022-11-04T00:02:47.538Z,100072.19
2022-11-04T00:05:17.653Z,100074.50
2022-11-04T00:08:03.059Z,100063.94
2022-11-04T00:10:45.471Z,100058.94
2022-11-04T00:13:14.089Z,100059.88
2022-11-04T00:16:00.440Z,100059.97
2022-11-04T00:18:29.359Z,100053.03
2022-11-04T00:21:17.168Z,100050.13
2022-11-04T00:24:05.673Z,100035.25
2022-11-04T00:26:51.728Z,100041.41
2022-11-04T00:29:20.326Z,100035.72
2022-11-04T00:32:06.256Z,100044.63
2022-11-04T00:34:34.820Z,100040.47
2022-11-04T00:37:05.009Z,100044.25
2022-11-04T00:39:33.764Z,100039.34
2022-11-04T00:42:02.495Z,100032.97
2022-11-04T00:44:31.123Z,100023.13
2022-11-04T00:46:59.766Z,100026.22
2022-11-04T00:49:28.012Z,100006.72
2022-11-04T00:51:56.749Z,100006.56
2022-11-04T00:54:26.908Z,100011.03
2022-11-04T00:56:55.699Z,99996.16
2022-11-04T00:59:24.737Z,100009.72
2022-11-04T01:01:53.188Z,99993.75
2022-11-04T01:04:21.954Z,99999.50
2022-11-04T01:06:50.957Z,99984.84
2022-11-04T01:09:19.751Z,99983.50
2022-11-04T01:11:49.916Z,99962.72
2022-11-04T01:14:18.552Z,99972.50
2022-11-04T01:16:47.024Z,99966.25
2022-11-04T01:19:15.632Z,99970.41
2022-11-04T01:21:44.336Z,99968.50
2022-11-04T01:24:12.963Z,99957.91
2022-11-04T01:26:41.608Z,99953.53
2022-11-04T01:29:11.600Z,99954.09
2022-11-04T01:31:39.867Z,99960.66
2022-11-04T01:34:08.778Z,99957.63
2022-11-04T01:36:37.551Z,99950.94
2022-11-04T01:39:06.257Z,99951.00
2022-11-04T01:41:35.629Z,99943.06
2022-11-04T01:44:06.462Z,99948.50
2022-11-04T01:46:39.106Z,99944.59
2022-11-04T01:49:16.987Z,99940.44
2022-11-04T01:51:47.880Z,99923.97
2022-11-04T01:54:16.994Z,99917.63
2022-11-04T01:56:45.867Z,99909.06
2022-11-04T01:59:17.953Z,99919.09
2022-11-04T02:01:48.059Z,99901.66
2022-11-04T02:04:30.239Z,99904.13
2022-11-04T02:07:00.137Z,99899.63
2022-11-04T02:09:30.585Z,99882.47
2022-11-04T02:12:16.684Z,99878.03
2022-11-04T02:14:46.168Z,99878.72
2022-11-04T02:17:25.564Z,99872.25
2022-11-04T02:20:02.698Z,99886.13
2022-11-04T02:22:50.161Z,99889.53
2022-11-04T02:25:33.956Z,99889.75
2022-11-04T02:28:23.999Z,99875.75
2022-11-04T02:30:56.363Z,99875.63
2022-11-04T02:33:28.324Z,99873.66
2022-11-04T02:36:03.547Z,99869.44
2022-11-04T02:38:37.466Z,99859.28
2022-11-04T02:41:13.837Z,99861.13
2022-11-04T02:43:49.333Z,99844.56
2022-11-04T02:46:23.386Z,99846.47
2022-11-04T02:48:56.208Z,99850.88
2022-11-04T02:51:29.788Z,99852.19
2022-11-04T02:54:05.868Z,99848.00
2022-11-04T02:56:37.946Z,99852.44
2022-11-04T02:59:08.807Z,99842.38
2022-11-04T03:01:42.140Z,99842.88
2022-11-04T03:04:14.903Z,99837.34
2022-11-04T03:06:45.229Z,99840.91
2022-11-04T03:09:15.156Z,99838.03
2022-11-04T03:11:46.169Z,99832.34
2022-11-04T03:14:18.228Z,99836.91
2022-11-04T03:16:49.283Z,99836.38
2022-11-04T03:19:21.484Z,99836.84
2022-11-04T03:21:54.935Z,99834.47
2022-11-04T03:24:23.884Z,99836.06
2022-11-04T03:26:56.948Z,99828.59
2022-11-04T03:29:28.179Z,99821.25
2022-11-04T03:32:05.100Z,99827.84
2022-11-04T03:34:34.263Z,99816.38
2022-11-04T03:37:03.180Z,99809.00
2022-11-04T03:39:32.144Z,99808.94
2022-11-04T03:42:03.398Z,99813.63
2022-11-04T03:44:32.017Z,99797.94
2022-11-04T03:47:02.143Z,99798.06
2022-11-04T03:49:30.870Z,99788.06
2022-11-04T03:51:59.648Z,99782.09
2022-11-04T03:54:29.181Z,99780.94
2022-11-04T03:57:11.107Z,99783.75
2022-11-04T04:00:11.572Z,99778.97
2022-11-04T04:02:43.367Z,99794.72
2022-11-04T04:05:18.667Z,99791.38
2022-11-04T04:07:50.942Z,99783.94
2022-11-04T04:10:41.903Z,99786.75
2022-11-04T04:13:26.844Z,99787.91
2022-11-04T04:15:58.372Z,99785.25
2022-11-04T04:18:33.148Z,99779.94
2022-11-04T04:21:04.707Z,99784.44
2022-11-04T04:24:08.058Z,99785.09
2022-11-04T04:26:54.836Z,99782.59
2022-11-04T04:29:23.912Z,99790.25
2022-11-04T04:31:57.937Z,99782.94
2022-11-04T04:34:31.378Z,99794.06
2022-11-04T04:37:03.577Z,99802.88
2022-11-04T04:39:55.868Z,99789.22
2022-11-04T04:42:42.056Z,99792.22
2022-11-04T04:45:11.733Z,99786.59
2022-11-04T04:47:44.330Z,99777.13
2022-11-04T04:50:16.167Z,99780.25
2022-11-04T04:52:47.480Z,99780.94
2022-11-04T04:55:16.625Z,99777.06
2022-11-04T04:57:45.569Z,99777.97
2022-11-04T05:00:16.312Z,99768.69
2022-11-04T05:02:45.547Z,99771.50
2022-11-04T05:05:20.045Z,99770.84
2022-11-04T05:07:48.735Z,99774.81
2022-11-04T05:10:18.647Z,99777.88
2022-11-04T05:13:04.698Z,99796.53
2022-11-04T05:15:33.733Z,99788.06
2022-11-04T05:18:03.417Z,99780.13
2022-11-04T05:20:34.472Z,99774.66
2022-11-04T05:23:03.267Z,99756.44
2022-11-04T05:25:33.119Z,99763.41
2022-11-04T05:28:02.590Z,99764.56
2022-11-04T05:30:31.514Z,99768.03
2022-11-04T05:33:03.654Z,99767.72
2022-11-04T05:35:35.803Z,99759.59
2022-11-04T05:38:04.185Z,99754.75
2022-11-04T05:40:32.656Z,99756.75
2022-11-04T05:43:01.695Z,99746.31
2022-11-04T05:45:30.687Z,99747.16
2022-11-04T05:48:00.459Z,99754.69
2022-11-04T05:50:29.567Z,99745.44
2022-11-04T05:53:00.054Z,99744.13
2022-11-04T05:55:28.808Z,99733.84
2022-11-04T05:57:59.371Z,99728.53
2022-11-04T06:00:28.696Z,99721.75
2022-11-04T06:02:58.452Z,99719.91
2022-11-04T06:05:27.546Z,99727.63
2022-11-04T06:07:55.768Z,99722.47
2022-11-04T06:10:26.046Z,99723.38
2022-11-04T06:12:54.728Z,99726.19
2022-11-04T06:15:23.424Z,99717.75
2022-11-04T06:17:52.186Z,99714.66
2022-11-04T06:20:20.866Z,99713.72
2022-11-04T06:22:49.910Z,99708.41
2022-11-04T06:25:18.655Z,99706.00
2022-11-04T06:27:48.753Z,99719.50
2022-11-04T06:30:17.614Z,99712.16
2022-11-04T06:32:46.296Z,99712.25
2022-11-04T06:35:15.102Z,99706.06
2022-11-04T06:37:43.381Z,99708.06
2022-11-04T06:40:12.713Z,99715.75
2022-11-04T06:42:43.009Z,99713.06
2022-11-04T06:45:13.158Z,99716.66
2022-11-04T06:47:41.939Z,99724.88
2022-11-04T06:50:11.065Z,99712.25
2022-11-04T06:52:42.363Z,99722.47
2022-11-04T06:55:11.936Z,99722.28
2022-11-04T06:57:40.720Z,99715.88
2022-11-04T07:00:10.543Z,99717.81
2022-11-04T07:02:40.864Z,99725.72
2022-11-04T07:05:09.975Z,99723.25
2022-11-04T07:07:38.394Z,99718.16
2022-11-04T07:10:08.048Z,99728.50
2022-11-04T07:12:36.728Z,99731.03
2022-11-04T07:15:05.984Z,99733.00
2022-11-04T07:17:34.840Z,99737.41
2022-11-04T07:20:06.630Z,99722.66
2022-11-04T07:22:34.934Z,99722.88
2022-11-04T07:25:03.727Z,99717.44
2022-11-04T07:27:32.425Z,99718.75
2022-11-04T07:30:01.134Z,99712.59
2022-11-04T07:32:30.211Z,99714.25
2022-11-04T07:34:58.846Z,99717.91
2022-11-04T07:37:28.585Z,99713.91
2022-11-04T07:39:57.251Z,99720.63
2022-11-04T07:42:25.855Z,99708.19
2022-11-04T07:44:57.347Z,99715.97
2022-11-04T07:47:25.929Z,99707.31
2022-11-04T07:49:54.232Z,99705.47
2022-11-04T07:52:23.025Z,99703.75
2022-11-04T07:54:53.067Z,99696.38
2022-11-04T07:57:22.517Z,99694.72
2022-11-04T07:59:51.239Z,99689.22
2022-11-04T08:02:25.799Z,99698.94
2022-11-04T08:04:56.054Z,99686.88
2022-11-04T08:07:24.717Z,99693.59
2022-11-04T08:09:55.032Z,99681.75
2022-11-04T08:12:24.537Z,99683.94
2022-11-04T08:14:53.071Z,99676.09
2022-11-04T08:17:21.732Z,99662.28
2022-11-04T08:19:50.496Z,99676.16
2022-11-04T08:22:19.378Z,99676.66
2022-11-04T08:24:48.530Z,99674.81
2022-11-04T08:27:18.652Z,99666.38
2022-11-04T08:29:47.234Z,99660.78
2022-11-04T08:32:16.022Z,99659.97
2022-11-04T08:34:44.344Z,99653.28
2022-11-04T08:37:15.347Z,99656.03
2022-11-04T08:39:44.022Z,99655.19
2022-11-04T08:42:12.667Z,99651.94
2022-11-04T08:44:42.990Z,99644.63
2022-11-04T08:47:11.610Z,99652.31
2022-11-04T08:49:41.160Z,99643.22
2022-11-04T08:52:10.228Z,99640.66
2022-11-04T08:54:38.913Z,99635.03
2022-11-04T08:57:08.255Z,99642.69
2022-11-04T08:59:37.654Z,99645.41
2022-11-04T09:02:08.215Z,99641.59
2022-11-04T09:04:38.714Z,99642.81
2022-11-04T09:07:08.435Z,99651.25
2022-11-04T09:09:37.219Z,99641.34
2022-11-04T09:12:06.168Z,99633.50
2022-11-04T09:14:34.887Z,99635.75
2022-11-04T09:17:03.489Z,99624.84
2022-11-04T09:19:33.197Z,99628.47
2022-11-04T09:22:02.000Z,99635.81
2022-11-04T09:24:32.020Z,99631.69
2022-11-04T09:27:00.950Z,99623.97
2022-11-04T09:29:33.665Z,99623.63
2022-11-04T09:32:02.350Z,99621.59
2022-11-04T09:34:32.391Z,99628.28
2022-11-04T09:37:01.062Z,99621.69
2022-11-04T09:39:29.699Z,99624.94
2022-11-04T09:42:15.338Z,99616.88
2022-11-04T09:45:19.625Z,99611.31
2022-11-04T09:47:39.774Z,99603.91
2022-11-04T09:50:12.448Z,99598.28
2022-11-04T09:52:44.718Z,99596.25
2022-11-04T09:55:18.111Z,99602.72
2022-11-04T09:57:56.545Z,99588.72
2022-11-04T10:00:26.031Z,99593.50
2022-11-04T10:03:02.095Z,99597.41
2022-11-04T10:05:41.735Z,99591.69
2022-11-04T10:08:24.546Z,99590.06
2022-11-04T10:10:57.695Z,99593.09
2022-11-04T10:13:30.751Z,99585.06
2022-11-04T10:16:12.860Z,99578.38
2022-11-04T10:19:10.783Z,99571.06
2022-11-04T10:21:47.607Z,99567.44
2022-11-04T10:24:21.286Z,99566.88
2022-11-04T10:27:00.405Z,99552.34
2022-11-04T10:29:34.083Z,99558.16
2022-11-04T10:32:06.995Z,99550.16
2022-11-04T10:34:38.872Z,99543.38
2022-11-04T10:37:13.185Z,99545.84
2022-11-04T10:39:45.112Z,99539.56
2022-11-04T10:42:16.143Z,99541.84
2022-11-04T10:44:45.401Z,99524.75
2022-11-04T10:47:22.191Z,99523.78
2022-11-04T10:50:27.298Z,99517.31
2022-11-04T10:52:47.802Z,99521.06
2022-11-04T10:55:27.070Z,99520.47
2022-11-04T10:57:56.956Z,99518.03
2022-11-04T11:00:37.092Z,99521.81
2022-11-04T11:03:24.626Z,99518.59
2022-11-04T11:05:53.841Z,99517.00
2022-11-04T11:08:31.949Z,99520.97
2022-11-04T11:11:00.442Z,99519.81
2022-11-04T11:13:35.749Z,99512.38
2022-11-04T11:16:11.858Z,99511.13
2022-11-04T11:18:42.122Z,99501.84
2022-11-04T11:21:12.373Z,99503.72
2022-11-04T11:23:47.396Z,99497.94
2022-11-04T11:26:18.726Z,99500.94
2022-11-04T11:28:55.795Z,99497.50
2022-11-04T11:31:27.655Z,99489.97
2022-11-04T11:33:58.069Z,99487.91
2022-11-04T11:36:28.028Z,99484.06
2022-11-04T11:39:05.832Z,99487.19
2022-11-04T11:41:40.973Z,99489.72
2022-11-04T11:44:20.946Z,99481.81
2022-11-04T11:46:54.640Z,99487.47
2022-11-04T11:49:28.499Z,99488.34
2022-11-04T11:51:57.506Z,99479.59
2022-11-04T11:54:33.954Z,99471.19
2022-11-04T11:57:15.151Z,99480.47
2022-11-04T12:02:49.118Z,99472.25
2022-11-04T12:11:17.723Z,99472.81
2022-11-04T12:13:50.605Z,99462.63
2022-11-04T12:16:28.776Z,99463.38
2022-11-04T12:19:31.284Z,99450.50
2022-11-04T12:22:03.514Z,99462.59
2022-11-04T12:24:39.526Z,99465.31
2022-11-04T12:27:16.510Z,99470.38
2022-11-04T12:30:00.439Z,99468.56
2022-11-04T12:32:37.667Z,99455.66
2022-11-04T12:35:18.606Z,99463.91
2022-11-04T12:37:54.466Z,99466.47
2022-11-04T12:40:26.705Z,99461.53
2022-11-04T12:43:07.094Z,99470.72
2022-11-04T12:45:44.799Z,99458.09
2022-11-04T12:48:28.482Z,99463.38
2022-11-04T12:51:03.079Z,99461.69
2022-11-04T12:53:43.696Z,99461.34
2022-11-04T12:56:13.484Z,99456.75
2022-11-04T12:59:02.346Z,99462.06
2022-11-04T13:01:34.803Z,99453.69
2022-11-04T13:04:07.869Z,99459.75
2022-11-04T13:06:41.259Z,99457.53
2022-11-04T13:09:13.658Z,99469.09
2022-11-04T13:11:46.864Z,99464.66
2022-11-04T13:14:23.984Z,99455.13
2022-11-04T13:16:53.066Z,99459.63
2022-11-04T13:19:28.708Z,99464.63
2022-11-04T13:21:58.570Z,99477.91
2022-11-04T13:24:31.878Z,99480.44
2022-11-04T13:27:04.648Z,99484.19
2022-11-04T13:29:37.076Z,99484.56
2022-11-04T13:32:12.297Z,99482.03
2022-11-04T13:34:48.898Z,99478.09
2022-11-04T13:37:22.572Z,99479.41
2022-11-04T13:39:54.937Z,99476.75
2022-11-04T13:42:44.204Z,99476.44
2022-11-04T13:45:16.406Z,99487.22
2022-11-04T13:47:48.866Z,99482.09
2022-11-04T13:50:35.517Z,99479.63
2022-11-04T13:53:04.925Z,99488.88
2022-11-04T13:55:35.968Z,99486.50
2022-11-04T13:58:06.676Z,99486.59
2022-11-04T14:00:37.662Z,99478.97
2022-11-04T14:03:40.322Z,99496.97
2022-11-04T14:06:10.855Z,99493.50
2022-11-04T14:09:14.373Z,99501.84
2022-11-04T14:12:24.660Z,99488.28
2022-11-04T14:14:56.060Z,99477.81
2022-11-04T14:18:02.280Z,99481.50
2022-11-04T14:20:33.446Z,99471.47
2022-11-04T14:23:03.729Z,99477.06
2022-11-04T14:25:38.005Z,99463.88
2022-11-04T14:28:27.520Z,99462.94
2022-11-04T14:30:58.944Z,99461.06
2022-11-04T14:33:35.460Z,99457.38
2022-11-04T14:36:26.848Z,99457.19
2022-11-04T14:38:56.182Z,99458.97
2022-11-04T14:41:34.398Z,99460.84
2022-11-04T14:44:04.511Z,99469.19
2022-11-04T14:46:42.112Z,99460.22
2022-11-04T14:49:32.949Z,99468.81
2022-11-04T14:52:01.541Z,99461.91
2022-11-04T14:54:32.723Z,99467.59
2022-11-04T14:57:11.156Z,99461.41
2022-11-04T14:59:39.851Z,99471.00
2022-11-04T15:02:16.547Z,99468.59
2022-11-04T15:04:58.120Z,99468.16
2022-11-04T15:07:37.418Z,99475.72
2022-11-04T15:10:21.089Z,99476.44
2022-11-04T15:12:52.544Z,99482.16
2022-11-04T15:15:32.881Z,99488.16
2022-11-04T15:18:05.260Z,99489.16
2022-11-04T15:20:46.639Z,99497.03
2022-11-04T15:23:18.281Z,99482.94
2022-11-04T15:25:48.647Z,99475.25
2022-11-04T15:28:22.701Z,99479.72
2022-11-04T15:31:06.112Z,99484.09
2022-11-04T15:33:41.047Z,99486.63
2022-11-04T15:36:12.027Z,99491.56
2022-11-04T15:38:43.106Z,99490.31
2022-11-04T15:41:33.159Z,99495.53
2022-11-04T15:44:04.119Z,99496.47
2022-11-04T15:46:32.885Z,99488.94
2022-11-04T15:49:05.721Z,99484.78
2022-11-04T15:51:39.333Z,99496.94
2022-11-04T15:54:16.509Z,99487.25
2022-11-04T15:56:50.132Z,99484.06
2022-11-04T15:59:21.221Z,99482.81
2022-11-04T16:01:50.954Z,99487.97
2022-11-04T16:04:23.019Z,99482.72
2022-11-04T16:07:06.590Z,99483.59
2022-11-04T16:09:47.357Z,99488.38
2022-11-04T16:12:18.552Z,99486.44
2022-11-04T16:14:52.276Z,99495.81
2022-11-04T16:17:21.325Z,99496.47
2022-11-04T16:19:53.001Z,99491.56
2022-11-04T16:22:26.794Z,99486.75
2022-11-04T16:24:56.077Z,99497.03
2022-11-04T16:27:24.968Z,99489.97
2022-11-04T16:30:03.420Z,99487.53
2022-11-04T16:32:40.576Z,99504.06
2022-11-04T16:35:16.442Z,99505.88
2022-11-04T16:37:44.707Z,99499.25
2022-11-04T16:40:14.007Z,99501.81
2022-11-04T16:42:42.796Z,99509.25
2022-11-04T16:45:19.374Z,99502.09
2022-11-04T16:47:48.038Z,99507.84
2022-11-04T16:50:19.168Z,99505.22
2022-11-04T16:52:47.754Z,99510.47
2022-11-04T16:55:16.830Z,99511.94
2022-11-04T16:57:46.190Z,99515.00
2022-11-04T17:00:21.076Z,99499.13
2022-11-04T17:02:50.386Z,99503.19
2022-11-04T17:05:21.319Z,99501.97
2022-11-04T17:07:58.853Z,99493.38
2022-11-04T17:10:35.893Z,99485.09
2022-11-04T17:13:04.691Z,99475.63
2022-11-04T17:15:33.560Z,99487.97
2022-11-04T17:18:02.253Z,99474.16
2022-11-04T17:20:33.003Z,99464.88
2022-11-04T17:23:02.335Z,99464.50
2022-11-04T17:25:31.648Z,99474.63
2022-11-04T17:28:00.320Z,99466.28
2022-11-04T17:30:29.060Z,99463.06
2022-11-04T17:32:58.246Z,99466.84
2022-11-04T17:35:27.154Z,99470.72
2022-11-04T17:37:56.963Z,99466.03
2022-11-04T17:40:25.916Z,99469.97
2022-11-04T17:43:23.478Z,99461.56
2022-11-04T17:46:13.247Z,99456.91
2022-11-04T17:48:41.999Z,99458.81
2022-11-04T17:51:11.017Z,99457.84
2022-11-04T17:53:41.205Z,99449.13
2022-11-04T17:56:15.333Z,99453.41
2022-11-04T17:58:43.776Z,99450.88
2022-11-04T18:01:13.772Z,99451.59
2022-11-04T18:03:43.214Z,99445.56
2022-11-04T18:06:12.118Z,99437.41
2022-11-04T18:08:42.280Z,99435.22
2022-11-04T18:11:12.734Z,99438.91
2022-11-04T18:13:40.075Z,99436.88
2022-11-04T18:16:11.972Z,99437.44
2022-11-04T18:18:40.820Z,99439.53
2022-11-04T18:21:11.062Z,99437.38
2022-11-04T18:23:41.175Z,99451.19
2022-11-04T18:26:10.269Z,99449.56
2022-11-04T18:28:38.900Z,99457.25
2022-11-04T18:31:09.704Z,99451.75
2022-11-04T18:33:42.633Z,99449.94
2022-11-04T18:36:11.752Z,99446.16
2022-11-04T18:38:41.806Z,99448.59
2022-11-04T18:41:10.595Z,99450.47
2022-11-04T18:43:38.927Z,99455.25
2022-11-04T18:46:09.697Z,99453.22
2022-11-04T18:48:38.703Z,99446.38
2022-11-04T18:51:09.643Z,99452.56
2022-11-04T18:53:38.710Z,99450.78
2022-11-04T18:56:10.779Z,99453.22
2022-11-04T18:58:40.345Z,99440.81
2022-11-04T19:01:11.023Z,99443.41
2022-11-04T19:03:40.187Z,99446.91
2022-11-04T19:06:10.269Z,99442.88
2022-11-04T19:08:45.304Z,99448.44
2022-11-04T19:11:19.694Z,99448.19
2022-11-04T19:13:51.687Z,99442.97
2022-11-04T19:16:20.440Z,99439.91
2022-11-04T19:18:49.607Z,99442.31
2022-11-04T19:21:19.910Z,99453.34
2022-11-04T19:23:48.629Z,99451.34
2022-11-04T19:26:20.640Z,99447.56
2022-11-04T19:28:50.081Z,99458.63
2022-11-04T19:31:21.029Z,99453.56
2022-11-04T19:33:50.113Z,99459.09
2022-11-04T19:36:21.112Z,99463.75
2022-11-04T19:38:52.634Z,99458.94
2022-11-04T19:41:41.680Z,99455.97
2022-11-04T19:44:12.261Z,99459.81
2022-11-04T19:46:41.616Z,99446.88
2022-11-04T19:49:12.522Z,99441.78
2022-11-04T19:51:41.807Z,99445.91
2022-11-04T19:54:11.259Z,99438.88
2022-11-04T19:56:42.691Z,99432.59
2022-11-04T19:59:12.489Z,99435.09
2022-11-04T20:01:41.066Z,99434.25
2022-11-04T20:04:10.713Z,99440.59
2022-11-04T20:06:39.722Z,99436.16
2022-11-04T20:09:11.081Z,99445.91
2022-11-04T20:11:56.062Z,99444.63
2022-11-04T20:14:24.784Z,99457.03
2022-11-04T20:16:53.164Z,99459.81
2022-11-04T20:19:23.094Z,99461.03
2022-11-04T20:21:52.437Z,99459.69
2022-11-04T20:24:21.106Z,99455.59
2022-11-04T20:26:51.135Z,99447.66
2022-11-04T20:29:19.990Z,99440.78
2022-11-04T20:31:48.418Z,99434.47
2022-11-04T20:34:17.062Z,99441.75
2022-11-04T20:36:45.834Z,99447.97
2022-11-04T20:39:16.797Z,99456.50
2022-11-04T20:41:45.924Z,99451.50
2022-11-04T20:44:16.668Z,99449.38
2022-11-04T20:46:44.922Z,99445.50
2022-11-04T20:49:14.153Z,99445.91
2022-11-04T20:51:54.512Z,99437.81
2022-11-04T20:54:24.140Z,99435.16
2022-11-04T20:56:52.733Z,99436.34
2022-11-04T20:59:22.776Z,99439.53
2022-11-04T21:01:51.220Z,99436.34
2022-11-04T21:04:21.482Z,99447.78
2022-11-04T21:06:51.468Z,99441.88
2022-11-04T21:09:21.858Z,99434.03
2022-11-04T21:11:51.411Z,99437.75
2022-11-04T21:14:20.430Z,99446.50
2022-11-04T21:16:50.146Z,99445.16
2022-11-04T21:19:22.000Z,99455.97
2022-11-04T21:21:51.442Z,99444.97
2022-11-04T21:24:20.099Z,99441.94
2022-11-04T21:26:49.094Z,99444.97
2022-11-04T21:29:19.462Z,99451.06
2022-11-04T21:31:49.848Z,99454.53
2022-11-04T21:34:18.536Z,99453.94
2022-11-04T21:36:47.215Z,99440.66
2022-11-04T21:39:15.974Z,99443.47
2022-11-04T21:41:44.756Z,99446.28
2022-11-04T21:44:14.440Z,99439.16
2022-11-04T21:46:43.405Z,99430.84
2022-11-04T21:49:16.649Z,99436.16
2022-11-04T21:51:45.226Z,99440.13
2022-11-04T21:54:13.786Z,99442.41
2022-11-04T21:56:42.582Z,99437.50
2022-11-04T21:59:17.976Z,99434.69
2022-11-04T22:01:46.874Z,99432.25
2022-11-04T22:04:17.127Z,99436.78
2022-11-04T22:06:47.179Z,99431.03
2022-11-04T22:09:15.772Z,99430.91
2022-11-04T22:11:44.543Z,99436.88
2022-11-04T22:14:13.624Z,99439.81
2022-11-04T22:16:41.967Z,99441.88
2022-11-04T22:19:13.589Z,99450.44
2022-11-04T22:21:45.473Z,99440.44
2022-11-04T22:24:16.053Z,99447.66
2022-11-04T22:26:44.720Z,99441.75
2022-11-04T22:29:13.362Z,99448.25
2022-11-04T22:31:43.114Z,99438.50
2022-11-04T22:34:12.223Z,99438.13
2022-11-04T22:36:41.132Z,99434.53
2022-11-04T22:39:16.865Z,99431.91
2022-11-04T22:41:47.196Z,99430.84
2022-11-04T22:44:16.196Z,99434.94
2022-11-04T22:46:44.780Z,99436.06
2022-11-04T22:49:14.608Z,99438.78
2022-11-04T22:51:43.373Z,99440.97
2022-11-04T22:54:13.405Z,99440.88
2022-11-04T22:56:42.162Z,99441.59
2022-11-04T22:59:11.353Z,99434.88
2022-11-04T23:01:39.707Z,99438.25
2022-11-04T23:04:11.912Z,99444.47
2022-11-04T23:06:40.973Z,99448.25
2022-11-04T23:09:09.802Z,99453.91
2022-11-04T23:11:57.356Z,99451.56
2022-11-04T23:14:43.316Z,99446.91
2022-11-04T23:17:34.431Z,99442.88
2022-11-04T23:20:03.768Z,99444.47
2022-11-04T23:22:49.573Z,99443.47
2022-11-04T23:25:18.972Z,99450.00
2022-11-04T23:28:07.712Z,99442.63
2022-11-04T23:30:38.868Z,99437.66
2022-11-04T23:33:09.058Z,99450.06
2022-11-04T23:35:55.892Z,99454.59
2022-11-04T23:38:24.690Z,99448.94
2022-11-04T23:41:21.314Z,99450.44
2022-11-04T23:43:51.365Z,99453.59
2022-11-04T23:46:42.638Z,99450.44
2022-11-04T23:49:29.907Z,99451.06
2022-11-04T23:52:15.950Z,99469.00
2022-11-04T23:55:02.067Z,99461.41
2022-11-04T23:57:48.337Z,99461.41
